Time;durP1;ratioP1;P1;durP2;ratioP2;P2;SDS_P1;SDS_P2;PMS_P1;PMS_P2;Temp;Humidity;BMP_temperature;BMP_pressure;BME280_temperature;BME280_humidity;BME280_pressure;Samples;Min_cycle;Max_cycle;Signal;HPM_P1;HPM_P2
2023/08/12 00:00:07;;;;;;;2.40;2.20;;;;;;;;;;5088277;28;20214;-60
2023/08/12 00:02:36;;;;;;;2.28;2.17;;;;;;;;;;5088752;28;20206;-59
2023/08/12 00:05:03;;;;;;;2.20;2.10;;;;;;;;;;5088292;28;20216;-60
2023/08/12 00:07:30;;;;;;;2.83;2.08;;;;;;;;;;5088270;28;20729;-59
2023/08/12 00:09:57;;;;;;;2.08;2.08;;;;;;;;;;5088297;28;20213;-60
2023/08/12 00:12:24;;;;;;;3.25;2.08;;;;;;;;;;5088111;28;20240;-60
2023/08/12 00:14:52;;;;;;;3.53;2.30;;;;;;;;;;5088037;28;20202;-61
2023/08/12 00:17:19;;;;;;;2.80;2.60;;;;;;;;;;5087977;28;20213;-60
2023/08/12 00:19:47;;;;;;;2.63;2.00;;;;;;;;;;5088036;28;20680;-60
2023/08/12 00:22:14;;;;;;;2.33;2.13;;;;;;;;;;5087496;28;20210;-60
2023/08/12 00:24:41;;;;;;;1.98;1.98;;;;;;;;;;5087709;28;20206;-60
2023/08/12 00:27:08;;;;;;;2.17;2.08;;;;;;;;;;5087921;28;20249;-60
2023/08/12 00:29:35;;;;;;;3.92;1.80;;;;;;;;;;5088078;28;20585;-60
2023/08/12 00:32:02;;;;;;;1.95;1.85;;;;;;;;;;5088013;28;20237;-60
2023/08/12 00:34:30;;;;;;;2.33;2.08;;;;;;;;;;5087800;28;20205;-60
2023/08/12 00:36:58;;;;;;;2.40;2.30;;;;;;;;;;5088030;28;20205;-60
2023/08/12 00:39:25;;;;;;;2.83;2.45;;;;;;;;;;5087778;28;20241;-60
2023/08/12 00:41:52;;;;;;;2.67;2.30;;;;;;;;;;5087260;28;20656;-60
2023/08/12 00:44:19;;;;;;;4.15;2.00;;;;;;;;;;5085896;28;20234;-60
2023/08/12 00:46:46;;;;;;;2.35;2.25;;;;;;;;;;5087522;28;20229;-60
2023/08/12 00:49:14;;;;;;;2.75;2.10;;;;;;;;;;5087972;28;20283;-59
2023/08/12 00:51:42;;;;;;;2.13;2.03;;;;;;;;;;5087692;28;20199;-59
2023/08/12 00:54:13;;;;;;;1.88;1.88;;;;;;;;;;5087716;28;20319;-60
2023/08/12 00:56:40;;;;;;;2.75;2.60;;;;;;;;;;5087711;28;20313;-60
2023/08/12 00:59:09;;;;;;;2.33;2.25;;;;;;;;;;5086020;28;20206;-60
2023/08/12 01:01:37;;;;;;;2.60;2.50;;;;;;;;;;5085935;28;20720;-60
2023/08/12 01:04:04;;;;;;;2.78;2.47;;;;;;;;;;5086456;28;20237;-60
2023/08/12 01:06:31;;;;;;;3.92;2.40;;;;;;;;;;5085001;28;20210;-59
2023/08/12 01:08:58;;;;;;;2.08;1.98;;;;;;;;;;5087331;28;20206;-60
2023/08/12 01:11:29;;;;;;;2.20;2.10;;;;;;;;;;5087175;28;20198;-59
2023/08/12 01:13:59;;;;;;;2.10;2.10;;;;;;;;;;5087347;28;20206;-59
2023/08/12 01:16:28;;;;;;;2.45;2.35;;;;;;;;;;5087112;28;20225;-60
2023/08/12 01:18:55;;;;;;;2.22;2.13;;;;;;;;;;5087561;28;20210;-60
2023/08/12 01:21:22;;;;;;;2.63;2.40;;;;;;;;;;5087401;28;20207;-59
2023/08/12 01:23:51;;;;;;;2.83;2.72;;;;;;;;;;5087413;28;20264;-59
2023/08/12 01:26:19;;;;;;;2.10;2.10;;;;;;;;;;5079858;28;20236;-60
2023/08/12 01:28:46;;;;;;;2.53;2.45;;;;;;;;;;5087027;28;20246;-60
2023/08/12 01:31:14;;;;;;;2.75;2.65;;;;;;;;;;5087663;28;20202;-60
2023/08/12 01:33:51;;;;;;;2.97;2.72;;;;;;;;;;5087744;28;20234;-60
2023/08/12 01:36:19;;;;;;;2.63;2.53;;;;;;;;;;5091216;28;20618;-60
2023/08/12 01:38:46;;;;;;;2.90;2.70;;;;;;;;;;5091259;28;20213;-60
2023/08/12 01:41:15;;;;;;;2.78;2.60;;;;;;;;;;5090840;28;20237;-59
2023/08/12 01:43:42;;;;;;;3.28;3.08;;;;;;;;;;5091042;28;20237;-60
2023/08/12 01:46:10;;;;;;;2.63;2.53;;;;;;;;;;5090907;28;20233;-60
2023/08/12 01:48:37;;;;;;;2.60;2.50;;;;;;;;;;5090546;28;20226;-60
2023/08/12 01:51:04;;;;;;;2.88;2.60;;;;;;;;;;5090839;28;20680;-60
2023/08/12 01:53:31;;;;;;;2.58;2.47;;;;;;;;;;5091024;28;20214;-60
2023/08/12 01:55:58;;;;;;;2.60;2.50;;;;;;;;;;5090265;28;20205;-60
2023/08/12 01:58:27;;;;;;;2.67;2.40;;;;;;;;;;5090980;28;20226;-60
2023/08/12 02:00:54;;;;;;;2.28;2.17;;;;;;;;;;5087022;28;20757;-60
2023/08/12 02:03:21;;;;;;;2.28;2.17;;;;;;;;;;5090877;28;20696;-60
2023/08/12 02:05:48;;;;;;;2.65;2.45;;;;;;;;;;5090747;28;20213;-59
2023/08/12 02:08:15;;;;;;;2.60;2.50;;;;;;;;;;5090239;28;20225;-59
2023/08/12 02:10:42;;;;;;;2.33;2.22;;;;;;;;;;5090600;28;20221;-59
2023/08/12 02:13:09;;;;;;;2.40;2.25;;;;;;;;;;5090316;28;20210;-60
2023/08/12 02:15:38;;;;;;;2.25;2.15;;;;;;;;;;5089991;28;20699;-60
2023/08/12 02:18:05;;;;;;;2.38;2.28;;;;;;;;;;5090192;28;20676;-60
2023/08/12 02:20:32;;;;;;;3.25;2.95;;;;;;;;;;5090406;28;20217;-59
2023/08/12 02:22:59;;;;;;;3.20;3.10;;;;;;;;;;5090091;28;20624;-60
2023/08/12 02:25:26;;;;;;;3.58;3.25;;;;;;;;;;5090016;28;20210;-60
2023/08/12 02:27:53;;;;;;;3.67;3.30;;;;;;;;;;5090075;28;20222;-61
2023/08/12 02:30:20;;;;;;;3.55;3.35;;;;;;;;;;5090373;28;20213;-63
2023/08/12 02:32:49;;;;;;;3.40;3.20;;;;;;;;;;5087424;28;20253;-63
2023/08/12 02:35:20;;;;;;;3.25;3.10;;;;;;;;;;5084863;28;20294;-60
2023/08/12 02:37:47;;;;;;;3.45;2.80;;;;;;;;;;5089581;28;20206;-60
2023/08/12 02:40:14;;;;;;;3.40;3.20;;;;;;;;;;5090088;28;20217;-61
2023/08/12 02:42:41;;;;;;;4.38;3.42;;;;;;;;;;5088292;28;20236;-60
2023/08/12 02:45:08;;;;;;;3.13;2.95;;;;;;;;;;5089486;28;20222;-61
2023/08/12 02:47:35;;;;;;;3.53;3.28;;;;;;;;;;5089653;28;20236;-61
2023/08/12 02:50:04;;;;;;;3.70;3.50;;;;;;;;;;5090153;28;20649;-60
2023/08/12 02:52:31;;;;;;;3.85;3.55;;;;;;;;;;5089807;28;20232;-60
2023/08/12 02:54:58;;;;;;;7.35;3.53;;;;;;;;;;5090092;28;20214;-61
2023/08/12 02:57:25;;;;;;;3.60;3.33;;;;;;;;;;5089982;28;20230;-60
2023/08/12 02:59:52;;;;;;;4.10;3.90;;;;;;;;;;5089900;28;20206;-60
2023/08/12 03:02:19;;;;;;;5.38;4.00;;;;;;;;;;5089756;28;20206;-60
2023/08/12 03:04:46;;;;;;;3.95;3.70;;;;;;;;;;5089669;28;20699;-61
2023/08/12 03:07:14;;;;;;;4.20;3.90;;;;;;;;;;5089150;28;20267;-60
2023/08/12 03:09:41;;;;;;;3.72;3.53;;;;;;;;;;5089643;28;20210;-61
2023/08/12 03:12:08;;;;;;;3.95;3.72;;;;;;;;;;5089567;28;20222;-61
2023/08/12 03:14:35;;;;;;;3.92;3.65;;;;;;;;;;5089127;28;20209;-61
2023/08/12 03:17:03;;;;;;;3.65;3.42;;;;;;;;;;5089024;28;20289;-60
2023/08/12 03:19:30;;;;;;;3.13;3.00;;;;;;;;;;5089623;28;20210;-62
2023/08/12 03:21:57;;;;;;;2.75;2.65;;;;;;;;;;5082508;28;20206;-61
2023/08/12 03:24:26;;;;;;;2.95;2.85;;;;;;;;;;5075659;28;20215;-60
2023/08/12 03:26:53;;;;;;;3.75;2.97;;;;;;;;;;5079259;28;20214;-60
2023/08/12 03:29:20;;;;;;;3.25;3.10;;;;;;;;;;5088152;28;20226;-61
2023/08/12 03:31:47;;;;;;;4.13;3.80;;;;;;;;;;5088974;28;20246;-60
2023/08/12 03:34:14;;;;;;;3.58;3.38;;;;;;;;;;5088728;28;20218;-61
2023/08/12 03:36:41;;;;;;;3.60;3.50;;;;;;;;;;5088553;28;20755;-61
2023/08/12 03:39:08;;;;;;;4.35;3.95;;;;;;;;;;5088803;28;20202;-60
2023/08/12 03:41:37;;;;;;;4.38;4.07;;;;;;;;;;5088825;28;20214;-60
2023/08/12 03:44:04;;;;;;;4.65;4.35;;;;;;;;;;5088745;28;20229;-60
2023/08/12 03:46:31;;;;;;;5.35;4.85;;;;;;;;;;5088632;28;20206;-60
2023/08/12 03:48:58;;;;;;;5.22;4.57;;;;;;;;;;5087883;28;20226;-60
2023/08/12 03:51:25;;;;;;;6.30;4.88;;;;;;;;;;5088192;28;20214;-60
2023/08/12 03:53:52;;;;;;;5.57;5.05;;;;;;;;;;5088472;28;20442;-60
2023/08/12 03:56:19;;;;;;;4.88;4.57;;;;;;;;;;5087640;28;20672;-61
2023/08/12 03:58:47;;;;;;;5.75;4.82;;;;;;;;;;5088425;28;20191;-60
2023/08/12 04:01:14;;;;;;;6.32;4.93;;;;;;;;;;5088449;28;20255;-60
2023/08/12 04:03:41;;;;;;;5.03;4.68;;;;;;;;;;5087574;28;20293;-60
2023/08/12 04:06:08;;;;;;;6.45;5.18;;;;;;;;;;5086856;28;20422;-60
2023/08/12 04:08:36;;;;;;;5.25;4.82;;;;;;;;;;5085306;28;21541;-60
2023/08/12 04:11:03;;;;;;;5.25;4.85;;;;;;;;;;5083318;28;20222;-61
2023/08/12 04:13:30;;;;;;;6.32;4.78;;;;;;;;;;5078737;28;20769;-61
2023/08/12 04:15:58;;;;;;;5.22;4.82;;;;;;;;;;5077415;28;20214;-60
2023/08/12 04:18:25;;;;;;;5.72;5.22;;;;;;;;;;5087620;28;20206;-61
2023/08/12 04:20:53;;;;;;;5.13;4.68;;;;;;;;;;5088284;28;20202;-60
2023/08/12 04:23:20;;;;;;;5.30;4.90;;;;;;;;;;5088113;28;20198;-60
2023/08/12 04:25:48;;;;;;;5.60;5.07;;;;;;;;;;5087480;28;20217;-60
2023/08/12 04:28:15;;;;;;;5.20;4.70;;;;;;;;;;5088006;28;20774;-60
2023/08/12 04:30:42;;;;;;;5.00;4.57;;;;;;;;;;5087925;28;20202;-59
2023/08/12 04:33:11;;;;;;;4.70;4.22;;;;;;;;;;5087691;28;20246;-60
2023/08/12 04:35:38;;;;;;;5.07;4.57;;;;;;;;;;5087716;28;20210;-60
2023/08/12 04:38:05;;;;;;;5.43;4.97;;;;;;;;;;5088240;28;20217;-60
2023/08/12 04:40:32;;;;;;;5.75;5.25;;;;;;;;;;5087072;28;20236;-60
2023/08/12 04:43:00;;;;;;;5.43;4.93;;;;;;;;;;5087907;28;20271;-60
2023/08/12 04:45:27;;;;;;;5.93;5.38;;;;;;;;;;5087979;28;20213;-60
2023/08/12 04:47:54;;;;;;;5.35;4.95;;;;;;;;;;5086568;28;20230;-60
2023/08/12 04:50:22;;;;;;;5.75;5.30;;;;;;;;;;5088026;28;20206;-61
2023/08/12 04:52:49;;;;;;;5.45;5.05;;;;;;;;;;5087894;28;20210;-60
2023/08/12 04:55:16;;;;;;;6.57;4.60;;;;;;;;;;5087725;28;20588;-60
2023/08/12 04:57:43;;;;;;;5.38;4.97;;;;;;;;;;5071395;28;20207;-61
2023/08/12 05:00:11;;;;;;;5.60;5.20;;;;;;;;;;5078165;28;20235;-60
2023/08/12 05:02:39;;;;;;;6.63;5.28;;;;;;;;;;5087850;28;20679;-61
2023/08/12 05:05:06;;;;;;;6.05;5.55;;;;;;;;;;5087798;28;20297;-60
2023/08/12 05:07:34;;;;;;;5.88;5.43;;;;;;;;;;5087812;28;20717;-60
2023/08/12 05:10:02;;;;;;;5.53;5.13;;;;;;;;;;5091728;28;20229;-60
2023/08/12 05:12:29;;;;;;;5.78;5.35;;;;;;;;;;5091798;28;20212;-60
2023/08/12 05:14:56;;;;;;;6.53;6.03;;;;;;;;;;5091413;28;20585;-60
2023/08/12 05:17:23;;;;;;;5.75;5.32;;;;;;;;;;5091385;28;20202;-60
2023/08/12 05:19:50;;;;;;;5.18;4.78;;;;;;;;;;5090097;28;20213;-60
2023/08/12 05:22:17;;;;;;;5.80;5.22;;;;;;;;;;5092108;28;20218;-61
2023/08/12 05:24:45;;;;;;;5.95;5.50;;;;;;;;;;5091328;28;20210;-61
2023/08/12 05:27:13;;;;;;;7.22;6.63;;;;;;;;;;5091340;28;20217;-60
2023/08/12 05:29:41;;;;;;;5.88;5.40;;;;;;;;;;5091947;28;20229;-60
2023/08/12 05:32:08;;;;;;;6.35;5.78;;;;;;;;;;5079608;28;20287;-60
2023/08/12 05:34:35;;;;;;;5.88;5.22;;;;;;;;;;5091553;28;20574;-60
2023/08/12 05:37:02;;;;;;;7.38;5.50;;;;;;;;;;5081118;28;20207;-60
2023/08/12 05:39:29;;;;;;;6.65;5.85;;;;;;;;;;5071094;28;20214;-60
2023/08/12 05:41:57;;;;;;;6.55;6.03;;;;;;;;;;5071146;28;20700;-60
2023/08/12 05:44:24;;;;;;;6.10;5.60;;;;;;;;;;5084608;28;20230;-60
2023/08/12 05:46:51;;;;;;;5.35;4.95;;;;;;;;;;5090930;28;20214;-60
2023/08/12 05:49:18;;;;;;;5.80;5.28;;;;;;;;;;5091231;28;20233;-60
2023/08/12 05:51:45;;;;;;;5.85;5.25;;;;;;;;;;5089510;28;20211;-60
2023/08/12 05:54:12;;;;;;;5.25;4.75;;;;;;;;;;5088479;28;20199;-60
2023/08/12 05:56:39;;;;;;;6.57;5.93;;;;;;;;;;5090967;28;20699;-61
2023/08/12 05:59:08;;;;;;;6.55;5.95;;;;;;;;;;5079720;28;20278;-61
2023/08/12 06:01:35;;;;;;;6.40;5.85;;;;;;;;;;5076514;28;20214;-60
2023/08/12 06:04:02;;;;;;;6.40;5.80;;;;;;;;;;5079225;28;20210;-61
2023/08/12 06:06:29;;;;;;;6.63;5.97;;;;;;;;;;5091130;28;20213;-60
2023/08/12 06:08:56;;;;;;;6.57;5.97;;;;;;;;;;5090349;28;20234;-61
2023/08/12 06:11:23;;;;;;;6.88;6.20;;;;;;;;;;5090413;28;20202;-61
2023/08/12 06:13:50;;;;;;;8.25;5.93;;;;;;;;;;5090637;28;20224;-61
2023/08/12 06:16:18;;;;;;;6.00;5.50;;;;;;;;;;5089980;28;20620;-61
2023/08/12 06:18:45;;;;;;;5.07;4.78;;;;;;;;;;5087898;28;20663;-60
2023/08/12 06:21:12;;;;;;;5.85;5.28;;;;;;;;;;5087748;28;20210;-61
2023/08/12 06:23:40;;;;;;;5.30;4.90;;;;;;;;;;5089062;28;20210;-64
2023/08/12 06:26:07;;;;;;;5.00;4.63;;;;;;;;;;5082557;28;20771;-63
2023/08/12 06:28:34;;;;;;;5.18;4.78;;;;;;;;;;5069950;28;20276;-64
2023/08/12 06:31:01;;;;;;;6.07;5.57;;;;;;;;;;5070178;28;20206;-63
2023/08/12 06:33:29;;;;;;;7.30;5.38;;;;;;;;;;5069924;28;20681;-63
2023/08/12 06:35:56;;;;;;;4.85;4.45;;;;;;;;;;5070080;28;20566;-63
2023/08/12 06:38:23;;;;;;;5.05;4.65;;;;;;;;;;5069521;28;20226;-64
2023/08/12 06:40:50;;;;;;;5.40;4.90;;;;;;;;;;5085144;28;20218;-63
2023/08/12 06:43:17;;;;;;;5.13;4.72;;;;;;;;;;5089622;28;20226;-64
2023/08/12 06:45:44;;;;;;;4.82;4.55;;;;;;;;;;5088973;28;20703;-64
2023/08/12 06:48:12;;;;;;;3.97;3.80;;;;;;;;;;5087736;28;20300;-63
2023/08/12 06:50:40;;;;;;;4.75;4.00;;;;;;;;;;5089378;28;20222;-63
2023/08/12 06:53:07;;;;;;;5.05;4.70;;;;;;;;;;5088811;28;20218;-64
2023/08/12 06:55:34;;;;;;;4.80;4.50;;;;;;;;;;5088556;28;20233;-63
2023/08/12 06:58:02;;;;;;;5.18;4.78;;;;;;;;;;5088953;28;20209;-63
2023/08/12 07:00:29;;;;;;;4.65;4.35;;;;;;;;;;5088721;28;20279;-63
2023/08/12 07:02:56;;;;;;;3.83;3.63;;;;;;;;;;5088925;28;20215;-63
2023/08/12 07:05:23;;;;;;;4.13;3.83;;;;;;;;;;5089153;28;20691;-64
2023/08/12 07:07:51;;;;;;;4.45;4.05;;;;;;;;;;5089082;28;20210;-64
2023/08/12 07:10:18;;;;;;;4.38;3.92;;;;;;;;;;5088485;28;20704;-64
2023/08/12 07:12:46;;;;;;;4.65;4.25;;;;;;;;;;5089154;28;20693;-64
2023/08/12 07:15:13;;;;;;;4.03;3.72;;;;;;;;;;5088442;28;20565;-64
2023/08/12 07:17:40;;;;;;;4.43;3.97;;;;;;;;;;5088527;28;20214;-64
2023/08/12 07:20:08;;;;;;;5.20;4.20;;;;;;;;;;5089007;28;20313;-62
2023/08/12 07:22:35;;;;;;;3.92;3.63;;;;;;;;;;5088471;28;20214;-64
2023/08/12 07:25:03;;;;;;;4.28;3.92;;;;;;;;;;5088369;28;20301;-64
2023/08/12 07:27:30;;;;;;;4.28;3.90;;;;;;;;;;5088722;28;20206;-62
2023/08/12 07:29:57;;;;;;;4.43;4.13;;;;;;;;;;5088314;28;20237;-64
2023/08/12 07:32:24;;;;;;;4.32;4.03;;;;;;;;;;5087978;28;20727;-64
2023/08/12 07:34:51;;;;;;;4.55;4.10;;;;;;;;;;5088649;28;20218;-65
2023/08/12 07:37:18;;;;;;;4.53;4.22;;;;;;;;;;5087915;28;20210;-64
2023/08/12 07:39:45;;;;;;;3.75;3.55;;;;;;;;;;5087967;28;20225;-64
2023/08/12 07:42:14;;;;;;;4.63;4.20;;;;;;;;;;5088597;28;20202;-64
2023/08/12 07:44:41;;;;;;;4.38;4.07;;;;;;;;;;5087491;28;20607;-64
2023/08/12 07:47:09;;;;;;;3.95;3.75;;;;;;;;;;5088119;28;20210;-64
2023/08/12 07:49:36;;;;;;;5.18;4.40;;;;;;;;;;5088133;28;20679;-64
2023/08/12 07:52:03;;;;;;;4.72;4.00;;;;;;;;;;5088055;28;20213;-64
2023/08/12 07:54:30;;;;;;;4.60;4.15;;;;;;;;;;5087563;28;20218;-64
2023/08/12 07:56:57;;;;;;;4.63;4.28;;;;;;;;;;5088284;28;20305;-64
2023/08/12 07:59:25;;;;;;;5.68;3.72;;;;;;;;;;5087441;28;20210;-62
2023/08/12 08:01:52;;;;;;;5.13;4.72;;;;;;;;;;5087830;28;20214;-61
2023/08/12 08:04:20;;;;;;;4.47;4.18;;;;;;;;;;5087688;28;20608;-66
2023/08/12 08:06:47;;;;;;;4.38;4.05;;;;;;;;;;5087685;28;20210;-65
2023/08/12 08:09:14;;;;;;;4.30;3.83;;;;;;;;;;5087726;28;20308;-66
2023/08/12 08:11:41;;;;;;;4.57;4.28;;;;;;;;;;5087824;28;20214;-66
2023/08/12 08:14:08;;;;;;;4.68;4.38;;;;;;;;;;5087422;28;20202;-65
2023/08/12 08:16:39;;;;;;;4.35;4.05;;;;;;;;;;5087397;28;20206;-65
2023/08/12 08:19:08;;;;;;;5.18;4.75;;;;;;;;;;5087837;28;20268;-64
2023/08/12 08:21:35;;;;;;;4.65;4.35;;;;;;;;;;5087562;28;20221;-65
2023/08/12 08:24:02;;;;;;;5.22;4.82;;;;;;;;;;5087420;28;20260;-65
2023/08/12 08:26:29;;;;;;;5.82;4.63;;;;;;;;;;5086042;28;20540;-65
2023/08/12 08:28:56;;;;;;;4.97;4.57;;;;;;;;;;5087432;28;20214;-64
2023/08/12 08:31:23;;;;;;;5.13;4.82;;;;;;;;;;5087415;28;20598;-65
2023/08/12 08:33:51;;;;;;;5.45;5.05;;;;;;;;;;5087480;28;20298;-65
2023/08/12 08:36:18;;;;;;;4.75;4.22;;;;;;;;;;5087360;28;20206;-65
2023/08/12 08:38:45;;;;;;;4.47;4.07;;;;;;;;;;5087244;28;20273;-65
2023/08/12 08:41:12;;;;;;;5.10;4.70;;;;;;;;;;5087046;28;20668;-64
2023/08/12 08:43:44;;;;;;;3.50;3.40;;;;;;;;;;5086817;28;20739;-64
2023/08/12 08:46:12;;;;;;;3.65;3.38;;;;;;;;;;5087140;28;20644;-65
2023/08/12 08:48:39;;;;;;;4.07;3.78;;;;;;;;;;5086959;28;20546;-65
2023/08/12 08:51:08;;;;;;;3.30;3.10;;;;;;;;;;5087276;28;20226;-65
2023/08/12 08:53:36;;;;;;;3.55;3.40;;;;;;;;;;5086014;28;20217;-64
2023/08/12 08:56:03;;;;;;;3.20;3.10;;;;;;;;;;5086708;28;20233;-63
2023/08/12 08:58:31;;;;;;;3.72;3.53;;;;;;;;;;5087426;28;20677;-64
2023/08/12 09:00:58;;;;;;;3.15;2.95;;;;;;;;;;5086889;28;20202;-64
2023/08/12 09:03:26;;;;;;;3.60;3.40;;;;;;;;;;5086916;28;20217;-64
2023/08/12 09:05:56;;;;;;;3.30;3.00;;;;;;;;;;5087188;28;20618;-64
2023/08/12 09:08:25;;;;;;;3.28;3.08;;;;;;;;;;5087429;28;20309;-64
2023/08/12 09:10:53;;;;;;;3.30;3.10;;;;;;;;;;5086238;28;20226;-64
2023/08/12 09:13:20;;;;;;;3.20;2.67;;;;;;;;;;5087099;28;20210;-63
2023/08/12 09:15:47;;;;;;;2.65;2.50;;;;;;;;;;5087071;28;20214;-63
2023/08/12 09:18:14;;;;;;;2.75;2.65;;;;;;;;;;5086668;28;20221;-64
2023/08/12 09:20:43;;;;;;;2.47;2.38;;;;;;;;;;5086929;28;20207;-64
2023/08/12 09:23:10;;;;;;;2.85;2.63;;;;;;;;;;5086965;28;20669;-64
2023/08/12 09:25:42;;;;;;;3.03;2.60;;;;;;;;;;5085857;28;20294;-64
2023/08/12 09:28:10;;;;;;;2.70;2.60;;;;;;;;;;5087122;28;20221;-64
2023/08/12 09:30:38;;;;;;;3.08;2.97;;;;;;;;;;5086748;28;20269;-64
2023/08/12 09:33:07;;;;;;;3.45;3.28;;;;;;;;;;5086728;28;20234;-64
2023/08/12 09:35:34;;;;;;;3.05;2.95;;;;;;;;;;5086741;28;20229;-64
2023/08/12 09:38:02;;;;;;;3.20;3.00;;;;;;;;;;5087005;28;20233;-64
2023/08/12 09:40:32;;;;;;;3.05;2.85;;;;;;;;;;5086629;28;20211;-64
2023/08/12 09:43:00;;;;;;;2.78;2.67;;;;;;;;;;5086373;28;20210;-64
2023/08/12 09:45:27;;;;;;;2.80;2.70;;;;;;;;;;5086615;28;20207;-63
2023/08/12 09:47:55;;;;;;;3.35;2.92;;;;;;;;;;5087118;28;20210;-64
2023/08/12 09:50:25;;;;;;;2.33;2.22;;;;;;;;;;5086608;28;20240;-64
2023/08/12 09:52:52;;;;;;;2.67;2.58;;;;;;;;;;5086388;28;20640;-64
2023/08/12 09:55:20;;;;;;;2.60;2.50;;;;;;;;;;5087638;28;20214;-64
2023/08/12 09:57:49;;;;;;;3.42;2.88;;;;;;;;;;5090632;28;20206;-64
2023/08/12 10:00:19;;;;;;;2.63;2.53;;;;;;;;;;5090233;28;20217;-64
2023/08/12 10:02:46;;;;;;;2.08;2.08;;;;;;;;;;5089934;28;20210;-64
2023/08/12 10:08:17;;;;;;;2.28;2.17;;;;;;;;;;5085047;28;20269;-65
2023/08/12 10:10:45;;;;;;;2.33;2.22;;;;;;;;;;5088641;28;20234;-64
2023/08/12 10:13:13;;;;;;;2.70;2.60;;;;;;;;;;5086896;28;20210;-65
2023/08/12 10:18:51;;;;;;;2.58;2.42;;;;;;;;;;5076697;28;20228;-64
2023/08/12 10:27:26;;;;;;;4.32;2.42;;;;;;;;;;5075171;28;20186;-64
2023/08/12 10:29:53;;;;;;;2.17;2.17;;;;;;;;;;5069952;28;20242;-64
2023/08/12 10:32:20;;;;;;;2.35;2.15;;;;;;;;;;5068999;28;20257;-64
2023/08/12 10:34:55;;;;;;;2.13;2.10;;;;;;;;;;5069329;28;20492;-64
2023/08/12 10:37:22;;;;;;;2.30;2.30;;;;;;;;;;5069694;28;20259;-64
2023/08/12 10:39:50;;;;;;;2.38;2.15;;;;;;;;;;5069699;28;20211;-65
2023/08/12 10:42:40;;;;;;;2.63;2.45;;;;;;;;;;5068763;28;20231;-64
2023/08/12 10:45:10;;;;;;;2.83;2.53;;;;;;;;;;5069707;28;20250;-64
2023/08/12 10:48:02;;;;;;;2.65;2.50;;;;;;;;;;5085737;28;20256;-64
2023/08/12 10:50:32;;;;;;;2.20;2.10;;;;;;;;;;5087754;28;20230;-64
2023/08/12 10:52:59;;;;;;;2.42;2.30;;;;;;;;;;5089069;28;20214;-64
2023/08/12 10:55:27;;;;;;;2.50;2.38;;;;;;;;;;5089140;28;20838;-65
2023/08/12 10:57:54;;;;;;;2.72;2.58;;;;;;;;;;5089406;28;20562;-64
2023/08/12 11:00:24;;;;;;;2.90;2.70;;;;;;;;;;5089179;28;20283;-65
2023/08/12 11:02:52;;;;;;;3.67;2.67;;;;;;;;;;5089327;28;20213;-65
2023/08/12 11:05:19;;;;;;;2.88;2.78;;;;;;;;;;5088855;28;20214;-64
2023/08/12 11:07:57;;;;;;;2.65;2.45;;;;;;;;;;5088822;28;20533;-64
2023/08/12 11:10:25;;;;;;;2.85;2.75;;;;;;;;;;5088835;28;20282;-65
2023/08/12 11:12:55;;;;;;;2.70;2.60;;;;;;;;;;5089146;28;20284;-65
2023/08/12 11:15:30;;;;;;;2.97;2.72;;;;;;;;;;5089362;28;20202;-65
2023/08/12 11:17:58;;;;;;;3.13;2.92;;;;;;;;;;5089145;28;20278;-65
2023/08/12 11:20:25;;;;;;;2.70;2.60;;;;;;;;;;5088527;28;20573;-65
2023/08/12 11:22:53;;;;;;;2.65;2.58;;;;;;;;;;5088842;28;20343;-65
2023/08/12 11:25:21;;;;;;;2.35;2.30;;;;;;;;;;5088855;28;20641;-67
2023/08/12 11:27:48;;;;;;;3.13;2.90;;;;;;;;;;5081990;28;20202;-65
2023/08/12 11:30:16;;;;;;;2.70;2.50;;;;;;;;;;5065931;28;20222;-65
2023/08/12 11:32:43;;;;;;;2.35;2.25;;;;;;;;;;5068248;28;20238;-65
2023/08/12 11:35:12;;;;;;;2.40;2.20;;;;;;;;;;5068176;28;20214;-65
2023/08/12 11:37:39;;;;;;;2.47;2.30;;;;;;;;;;5068537;28;20218;-65
2023/08/12 11:40:09;;;;;;;1.70;1.70;;;;;;;;;;5068584;28;20225;-65
2023/08/12 11:42:36;;;;;;;2.03;1.92;;;;;;;;;;5068323;28;20215;-64
2023/08/12 11:45:04;;;;;;;2.47;2.38;;;;;;;;;;5066405;28;20288;-65
2023/08/12 11:47:31;;;;;;;2.53;2.40;;;;;;;;;;5068232;28;20755;-65
2023/08/12 11:49:58;;;;;;;1.80;1.70;;;;;;;;;;5068281;28;20202;-65
2023/08/12 11:52:26;;;;;;;1.88;1.77;;;;;;;;;;5068043;28;20210;-64
2023/08/12 11:54:53;;;;;;;1.42;1.40;;;;;;;;;;5088327;28;20205;-65
2023/08/12 11:57:23;;;;;;;1.75;1.65;;;;;;;;;;5088168;28;20211;-65
2023/08/12 11:59:51;;;;;;;3.55;1.75;;;;;;;;;;5088353;28;20283;-65
2023/08/12 12:02:18;;;;;;;1.75;1.70;;;;;;;;;;5087674;28;20207;-65
2023/08/12 12:04:45;;;;;;;1.45;1.45;;;;;;;;;;5084019;28;20313;-65
2023/08/12 12:07:22;;;;;;;2.47;2.33;;;;;;;;;;5085620;28;20210;-64
2023/08/12 12:09:51;;;;;;;1.83;1.73;;;;;;;;;;5086870;28;20233;-65
2023/08/12 12:12:18;;;;;;;1.35;1.35;;;;;;;;;;5087312;28;20296;-64
2023/08/12 12:14:48;;;;;;;1.67;1.58;;;;;;;;;;5087579;28;20236;-68
2023/08/12 12:17:16;;;;;;;1.33;1.23;;;;;;;;;;5087271;28;20214;-62
2023/08/12 12:19:43;;;;;;;1.45;1.35;;;;;;;;;;5087125;28;20281;-62
2023/08/12 12:22:10;;;;;;;1.20;1.20;;;;;;;;;;5087697;28;20703;-62
2023/08/12 12:24:46;;;;;;;1.40;1.30;;;;;;;;;;5086996;28;20224;-62
2023/08/12 12:27:13;;;;;;;1.20;1.20;;;;;;;;;;5087361;28;20640;-62
2023/08/12 12:29:40;;;;;;;1.30;1.20;;;;;;;;;;5087018;28;20636;-62
2023/08/12 12:32:08;;;;;;;1.50;1.40;;;;;;;;;;5087543;28;20605;-62
2023/08/12 12:34:35;;;;;;;1.60;1.50;;;;;;;;;;5086931;28;20210;-62
2023/08/12 12:37:02;;;;;;;1.30;1.25;;;;;;;;;;5086661;28;20210;-62
2023/08/12 12:39:31;;;;;;;1.00;1.00;;;;;;;;;;5085422;28;20497;-67
2023/08/12 12:41:59;;;;;;;1.73;0.93;;;;;;;;;;5085185;28;20301;-68
2023/08/12 12:44:26;;;;;;;0.82;0.80;;;;;;;;;;5085014;28;20230;-69
2023/08/12 12:46:53;;;;;;;1.00;1.00;;;;;;;;;;5087452;28;20206;-69
2023/08/12 12:49:22;;;;;;;0.80;0.80;;;;;;;;;;5087207;28;20210;-71
2023/08/12 12:51:49;;;;;;;1.02;0.88;;;;;;;;;;5083336;28;20237;-71
2023/08/12 12:54:16;;;;;;;1.60;0.90;;;;;;;;;;5084672;28;20225;-70
2023/08/12 12:56:43;;;;;;;0.90;0.90;;;;;;;;;;5087661;28;20210;-69
2023/08/12 12:59:11;;;;;;;0.80;0.80;;;;;;;;;;5080717;28;20207;-70
2023/08/12 13:01:38;;;;;;;0.90;0.90;;;;;;;;;;5072018;28;20211;-70
2023/08/12 13:04:06;;;;;;;0.80;0.80;;;;;;;;;;5066506;28;20629;-69
2023/08/12 13:06:34;;;;;;;1.38;1.00;;;;;;;;;;5066892;28;20210;-70
2023/08/12 13:09:01;;;;;;;1.17;0.70;;;;;;;;;;5067205;28;20207;-69
2023/08/12 13:11:29;;;;;;;0.98;0.98;;;;;;;;;;5067089;28;20231;-70
2023/08/12 13:13:56;;;;;;;0.88;0.88;;;;;;;;;;5067029;28;20206;-70
2023/08/12 13:16:23;;;;;;;0.90;0.90;;;;;;;;;;5066637;28;20222;-70
2023/08/12 13:18:50;;;;;;;0.80;0.80;;;;;;;;;;5067108;28;20215;-70
2023/08/12 13:21:17;;;;;;;0.85;0.73;;;;;;;;;;5066526;28;20215;-70
2023/08/12 13:23:46;;;;;;;1.27;0.70;;;;;;;;;;5078078;28;20490;-70
2023/08/12 13:26:13;;;;;;;0.80;0.80;;;;;;;;;;5086824;28;20244;-71
2023/08/12 13:28:40;;;;;;;0.80;0.80;;;;;;;;;;5087249;28;20222;-70
2023/08/12 13:31:08;;;;;;;0.80;0.80;;;;;;;;;;5091001;28;20230;-70
2023/08/12 13:33:35;;;;;;;0.70;0.70;;;;;;;;;;5091110;28;20322;-70
2023/08/12 13:36:02;;;;;;;0.98;0.98;;;;;;;;;;5090432;28;20214;-69
2023/08/12 13:38:29;;;;;;;0.77;0.73;;;;;;;;;;5071510;28;20222;-70
2023/08/12 13:40:58;;;;;;;0.80;0.80;;;;;;;;;;5090906;28;20305;-71
2023/08/12 13:43:25;;;;;;;0.85;0.85;;;;;;;;;;5090269;28;20678;-70
2023/08/12 13:45:52;;;;;;;1.00;0.82;;;;;;;;;;5089163;28;20215;-71
2023/08/12 13:48:19;;;;;;;1.02;1.02;;;;;;;;;;5090934;28;20222;-72
2023/08/12 13:50:49;;;;;;;1.05;0.98;;;;;;;;;;5090524;28;20226;-72
2023/08/12 13:53:16;;;;;;;0.90;0.90;;;;;;;;;;5090450;28;20214;-70
2023/08/12 13:55:43;;;;;;;0.80;0.80;;;;;;;;;;5090382;28;20412;-72
2023/08/12 13:58:11;;;;;;;0.90;0.90;;;;;;;;;;5090413;28;20217;-72
2023/08/12 14:00:38;;;;;;;1.10;1.00;;;;;;;;;;5090365;28;20259;-72
2023/08/12 14:03:06;;;;;;;0.93;0.82;;;;;;;;;;5090530;28;20215;-72
2023/08/12 14:05:33;;;;;;;0.90;0.90;;;;;;;;;;5090135;28;20236;-72
2023/08/12 14:08:00;;;;;;;2.50;0.95;;;;;;;;;;5089647;28;20220;-72
2023/08/12 14:10:27;;;;;;;1.40;1.17;;;;;;;;;;5090440;28;20698;-72
2023/08/12 14:12:54;;;;;;;2.05;1.20;;;;;;;;;;5089826;28;20280;-72
2023/08/12 14:15:22;;;;;;;1.20;1.20;;;;;;;;;;5075441;28;20584;-72
2023/08/12 14:17:49;;;;;;;0.90;0.90;;;;;;;;;;5069909;28;20215;-72
2023/08/12 14:20:17;;;;;;;0.70;0.70;;;;;;;;;;5069951;28;20203;-73
2023/08/12 14:22:44;;;;;;;2.15;1.10;;;;;;;;;;5072016;28;20318;-72
2023/08/12 14:25:11;;;;;;;1.00;1.00;;;;;;;;;;5089176;28;20210;-72
2023/08/12 14:27:39;;;;;;;1.10;1.10;;;;;;;;;;5068791;28;20628;-72
2023/08/12 14:30:06;;;;;;;1.17;1.17;;;;;;;;;;5069675;28;20220;-72
2023/08/12 14:32:35;;;;;;;3.08;1.00;;;;;;;;;;5069578;28;20243;-72
2023/08/12 14:35:02;;;;;;;1.83;1.05;;;;;;;;;;5069268;28;20203;-73
2023/08/12 14:37:29;;;;;;;0.95;0.95;;;;;;;;;;5064657;28;20207;-73
2023/08/12 14:39:56;;;;;;;0.93;0.93;;;;;;;;;;5067357;28;20230;-73
2023/08/12 14:42:23;;;;;;;0.90;0.90;;;;;;;;;;5066874;28;20199;-72
2023/08/12 14:44:50;;;;;;;1.20;1.10;;;;;;;;;;5068630;28;20227;-72
2023/08/12 14:47:18;;;;;;;1.10;1.08;;;;;;;;;;5069251;28;20207;-71
2023/08/12 14:49:49;;;;;;;1.27;1.17;;;;;;;;;;5068497;28;20215;-72
2023/08/12 14:52:17;;;;;;;1.13;1.13;;;;;;;;;;5068528;28;20589;-72
2023/08/12 14:54:44;;;;;;;2.50;1.20;;;;;;;;;;5088743;28;20237;-72
2023/08/12 14:57:11;;;;;;;1.40;1.40;;;;;;;;;;5088940;28;20218;-72